Peotone Weather
Station Historical Data
 
Daily Summary for August 28, 2015 Units:  English    Metric   Both
« Previous Day
Next Day »
Daily Weekly Monthly Yearly Custom
  Current: High: Low: Average:
Temperature: 56.4 °F 59.4 °F 56.4 °F 57.8 °F
Dew Point: 54.7 °F 56.5 °F 54.5 °F 55.5 °F
Humidity: 94% 94% 90% 92%
Wind Speed: 0.0mph 3.5mph 0.0mph 0.5mph
Wind Gust: 0.0mph 6.9mph - -
WindCalm - - East
Pressure: 30.10 in 30.13 in 30.10 in -
Precipitation: 0.00 in      
Historical Graphs
 
 
Tabular Data for August 28, 2015
Time Temperature Dew Point Pressure Wind Wind Speed Wind Gust Humidity Rainfall Rate (Hourly) solar Conditions
00:00 59.4 °F 56.5 °F 30.12 in East 2.3 mph 5.8 mph 90% 0.00 in 0.00 W/m2
00:03 59.4 °F 56.5 °F 30.12 in Calm   2.3 mph 90% 0.00 in 0.00 W/m2
00:05 59.3 °F 56.4 °F 30.12 in Calm   2.3 mph 90% 0.00 in 0.00 W/m2
00:08 59.2 °F 56.3 °F 30.12 in Calm   1.1 mph 90% 0.00 in 0.00 W/m2
00:10 59.1 °F 56.2 °F 30.12 in Calm   2.3 mph 90% 0.00 in 0.00 W/m2
00:13 59.0 °F 56.4 °F 30.12 in Calm   2.3 mph 91% 0.00 in 0.00 W/m2
00:15 58.9 °F 56.3 °F 30.12 in Calm   2.3 mph 91% 0.00 in 0.00 W/m2
00:18 58.9 °F 56.3 °F 30.12 in Calm   3.4 mph 91% 0.00 in 0.00 W/m2
00:23 58.7 °F 56.1 °F 30.12 in Calm   1.1 mph 91% 0.00 in 0.00 W/m2
00:28 58.5 °F 55.9 °F 30.12 in Calm   3.4 mph 91% 0.00 in 0.00 W/m2
00:33 58.4 °F 55.8 °F 30.13 in Calm   1.1 mph 91% 0.00 in 0.00 W/m2
00:38 58.2 °F 55.9 °F 30.13 in Calm   2.3 mph 92% 0.00 in 0.00 W/m2
00:43 58.2 °F 55.9 °F 30.12 in Calm   3.4 mph 92% 0.00 in 0.00 W/m2
00:48 58.2 °F 55.9 °F 30.12 in Calm   3.4 mph 92% 0.00 in 0.00 W/m2
00:50 58.2 °F 55.9 °F 30.13 in Calm   3.5 mph 92% 0.00 in 0.00 W/m2
00:53 58.2 °F 55.9 °F 30.12 in Calm   2.3 mph 92% 0.00 in 0.00 W/m2
00:55 58.2 °F 55.9 °F 30.12 in Calm   2.3 mph 92% 0.00 in 0.00 W/m2
00:58 58.2 °F 55.9 °F 30.12 in Calm   2.3 mph 92% 0.00 in 0.00 W/m2
01:00 58.2 °F 55.9 °F 30.12 in Calm   2.3 mph 92% 0.00 in 0.00 W/m2
01:03 58.1 °F 55.8 °F 30.12 in East 1.1 mph 2.3 mph 92% 0.00 in 0.00 W/m2
01:08 57.9 °F 55.6 °F 30.12 in East 1.1 mph 5.8 mph 92% 0.00 in 0.00 W/m2
01:10 57.9 °F 55.6 °F 30.12 in East 3.5 mph 5.8 mph 92% 0.00 in 0.00 W/m2
01:13 57.9 °F 55.6 °F 30.12 in Calm   5.8 mph 92% 0.00 in 0.00 W/m2
01:15 57.9 °F 55.6 °F 30.12 in Calm   5.8 mph 92% 0.00 in 0.00 W/m2
01:18 57.7 °F 55.4 °F 30.12 in Calm   3.4 mph 92% 0.00 in 0.00 W/m2
01:20 57.7 °F 55.4 °F 30.12 in East 1.1 mph 3.5 mph 92% 0.00 in 0.00 W/m2
01:24 57.7 °F 55.4 °F 30.12 in Calm   2.3 mph 92% 0.00 in 0.00 W/m2
01:29 57.7 °F 55.4 °F 30.12 in East 1.1 mph 3.4 mph 92% 0.00 in 0.00 W/m2
01:34 57.7 °F 55.4 °F 30.12 in Calm   2.3 mph 92% 0.00 in 0.00 W/m2
01:39 57.7 °F 55.4 °F 30.12 in East 2.3 mph 5.8 mph 92% 0.00 in 0.00 W/m2
01:40 57.8 °F 55.5 °F 30.12 in East 3.5 mph 6.9 mph 92% 0.00 in 0.00 W/m2
01:44 57.8 °F 55.5 °F 30.12 in Calm   3.4 mph 92% 0.00 in 0.00 W/m2
01:45 57.9 °F 55.6 °F 30.12 in East 1.1 mph 3.5 mph 92% 0.00 in 0.00 W/m2
01:49 57.9 °F 55.6 °F 30.12 in East 1.1 mph 2.3 mph 92% 0.00 in 0.00 W/m2
01:54 57.9 °F 55.6 °F 30.12 in Calm   2.3 mph 92% 0.00 in 0.00 W/m2
01:55 57.9 °F 55.6 °F 30.12 in Calm   2.3 mph 92% 0.00 in 0.00 W/m2
01:59 57.9 °F 55.6 °F 30.11 in Calm   2.3 mph 92% 0.00 in 0.00 W/m2
02:00 57.9 °F 55.6 °F 30.11 in East 1.1 mph 2.3 mph 92% 0.00 in 0.00 W/m2
02:04 57.9 °F 55.6 °F 30.11 in Calm   2.3 mph 92% 0.00 in 0.00 W/m2
02:05 57.9 °F 55.6 °F 30.11 in Calm   2.3 mph 92% 0.00 in 0.00 W/m2
02:09 57.8 °F 55.5 °F 30.11 in Calm   1.1 mph 92% 0.00 in 0.00 W/m2
02:10 57.8 °F 55.5 °F 30.11 in Calm   2.3 mph 92% 0.00 in 0.00 W/m2
02:14 57.8 °F 55.5 °F 30.11 in Calm   1.1 mph 92% 0.00 in 0.00 W/m2
02:15 57.8 °F 55.5 °F 30.11 in East 1.1 mph 1.1 mph 92% 0.00 in 0.00 W/m2
02:19 57.7 °F 55.4 °F 30.11 in Calm   3.4 mph 92% 0.00 in 0.00 W/m2
02:20 57.7 °F 55.4 °F 30.11 in Calm   3.5 mph 92% 0.00 in 0.00 W/m2
02:24 57.7 °F 55.4 °F 30.11 in Calm     92% 0.00 in 0.00 W/m2
02:29 57.6 °F 55.3 °F 30.11 in Calm     92% 0.00 in 0.00 W/m2
02:34 57.6 °F 55.3 °F 30.11 in Calm   3.4 mph 92% 0.00 in 0.00 W/m2
02:35 57.6 °F 55.3 °F 30.11 in East 1.1 mph 3.5 mph 92% 0.00 in 0.00 W/m2
02:39 57.6 °F 55.3 °F 30.11 in Calm   5.8 mph 92% 0.00 in 0.00 W/m2
02:40 57.6 °F 55.6 °F 30.11 in Calm   5.8 mph 93% 0.00 in 0.00 W/m2
02:44 57.6 °F 55.3 °F 30.11 in ESE 1.1 mph 4.6 mph 92% 0.00 in 0.00 W/m2
02:45 57.6 °F 55.3 °F 30.11 in ESE 2.3 mph 4.6 mph 92% 0.00 in 0.00 W/m2
02:49 57.5 °F 55.2 °F 30.11 in ESE 1.1 mph 2.3 mph 92% 0.00 in 0.00 W/m2
02:50 57.5 °F 55.2 °F 30.11 in Calm   2.3 mph 92% 0.00 in 0.00 W/m2
02:54 57.5 °F 55.2 °F 30.11 in Calm   2.3 mph 92% 0.00 in 0.00 W/m2
02:55 57.5 °F 55.2 °F 30.11 in ESE 2.3 mph 2.3 mph 92% 0.00 in 0.00 W/m2
03:00 57.5 °F 55.2 °F 30.11 in Calm   2.3 mph 92% 0.00 in 0.00 W/m2
03:05 57.5 °F 55.5 °F 30.11 in Calm     93% 0.00 in 0.00 W/m2
03:10 57.4 °F 55.4 °F 30.11 in Calm   1.1 mph 93% 0.00 in 0.00 W/m2
03:15 57.3 °F 55.3 °F 30.11 in Calm   2.3 mph 93% 0.00 in 0.00 W/m2
03:20 57.2 °F 55.2 °F 30.11 in Calm   2.3 mph 93% 0.00 in 0.00 W/m2
03:25 57.0 °F 55.0 °F 30.11 in ESE 1.1 mph 4.6 mph 93% 0.00 in 0.00 W/m2
03:30 56.9 °F 54.9 °F 30.11 in Calm   2.3 mph 93% 0.00 in 0.00 W/m2
03:35 56.9 °F 54.9 °F 30.11 in Calm     93% 0.00 in 0.00 W/m2
03:40 56.9 °F 54.9 °F 30.11 in Calm   3.4 mph 93% 0.00 in 0.00 W/m2
03:45 56.8 °F 54.8 °F 30.11 in Calm   2.3 mph 93% 0.00 in 0.00 W/m2
03:50 56.8 °F 54.8 °F 30.11 in Calm   3.4 mph 93% 0.00 in 0.00 W/m2
03:55 56.8 °F 54.8 °F 30.11 in ESE 1.1 mph 3.4 mph 93% 0.00 in 0.00 W/m2
04:00 56.8 °F 55.1 °F 30.11 in ESE 3.4 mph 4.6 mph 94% 0.00 in 0.00 W/m2
04:05 56.7 °F 55.0 °F 30.11 in ESE 3.4 mph 3.4 mph 94% 0.00 in 0.00 W/m2
04:10 56.6 °F 54.9 °F 30.11 in Calm   3.4 mph 94% 0.00 in 0.00 W/m2
04:15 56.5 °F 54.5 °F 30.10 in Calm     93% 0.00 in 0.00 W/m2
04:20 56.4 °F 54.7 °F 30.10 in Calm     94% 0.00 in 0.00 W/m2
Peotone Weather Data
Compliments of Weather Underground